sensor_id;sensor_type;location;lat;lon;timestamp;pressure;altitude;pressure_sealevel;temperature;humidity
82416;BME280;72058;47.782;10.618;2023-12-20T00:00:53;93466.56;;;5.90;55.13
82416;BME280;72058;47.782;10.618;2023-12-20T00:03:18;93457.44;;;5.86;55.11
82416;BME280;72058;47.782;10.618;2023-12-20T00:05:44;93460.41;;;5.84;55.32
82416;BME280;72058;47.782;10.618;2023-12-20T00:08:09;93455.78;;;5.90;55.06
82416;BME280;72058;47.782;10.618;2023-12-20T00:10:35;93447.72;;;5.85;54.79
82416;BME280;72058;47.782;10.618;2023-12-20T00:13:00;93447.41;;;5.86;55.31
82416;BME280;72058;47.782;10.618;2023-12-20T00:15:25;93441.03;;;6.01;55.16
82416;BME280;72058;47.782;10.618;2023-12-20T00:17:51;93435.59;;;5.82;55.48
82416;BME280;72058;47.782;10.618;2023-12-20T00:20:16;93434.22;;;5.85;56.18
82416;BME280;72058;47.782;10.618;2023-12-20T00:22:41;93428.69;;;5.76;55.76
82416;BME280;72058;47.782;10.618;2023-12-20T00:25:07;93427.06;;;5.75;55.83
82416;BME280;72058;47.782;10.618;2023-12-20T00:27:33;93429.75;;;5.75;55.86
82416;BME280;72058;47.782;10.618;2023-12-20T00:29:58;93415.31;;;5.85;55.89
82416;BME280;72058;47.782;10.618;2023-12-20T00:32:23;93412.69;;;5.80;55.84
82416;BME280;72058;47.782;10.618;2023-12-20T00:34:48;93397.75;;;5.68;56.33
82416;BME280;72058;47.782;10.618;2023-12-20T00:37:14;93401.03;;;5.84;56.05
82416;BME280;72058;47.782;10.618;2023-12-20T00:39:39;93405.75;;;5.73;56.24
82416;BME280;72058;47.782;10.618;2023-12-20T00:42:05;93396.16;;;5.67;56.66
82416;BME280;72058;47.782;10.618;2023-12-20T00:44:30;93389.28;;;5.75;56.52
82416;BME280;72058;47.782;10.618;2023-12-20T00:46:55;93389.94;;;5.86;56.23
82416;BME280;72058;47.782;10.618;2023-12-20T00:49:21;93391.94;;;5.99;56.12
82416;BME280;72058;47.782;10.618;2023-12-20T00:51:46;93403.66;;;6.08;55.98
82416;BME280;72058;47.782;10.618;2023-12-20T00:54:13;93397.97;;;6.09;55.74
82416;BME280;72058;47.782;10.618;2023-12-20T00:56:38;93393.28;;;6.15;56.22
82416;BME280;72058;47.782;10.618;2023-12-20T00:59:04;93394.53;;;6.23;55.72
82416;BME280;72058;47.782;10.618;2023-12-20T01:01:29;93400.22;;;6.21;55.67
82416;BME280;72058;47.782;10.618;2023-12-20T01:03:54;93401.63;;;6.19;56.01
82416;BME280;72058;47.782;10.618;2023-12-20T01:06:20;93401.69;;;6.14;55.97
82416;BME280;72058;47.782;10.618;2023-12-20T01:08:46;93393.66;;;6.08;56.22
82416;BME280;72058;47.782;10.618;2023-12-20T01:11:11;93395.50;;;5.94;56.86
82416;BME280;72058;47.782;10.618;2023-12-20T01:13:36;93395.19;;;5.96;57.19
82416;BME280;72058;47.782;10.618;2023-12-20T01:16:02;93404.25;;;6.05;56.91
82416;BME280;72058;47.782;10.618;2023-12-20T01:18:28;93403.38;;;6.09;56.86
82416;BME280;72058;47.782;10.618;2023-12-20T01:20:53;93401.97;;;6.12;56.89
82416;BME280;72058;47.782;10.618;2023-12-20T01:23:18;93390.06;;;6.13;57.17
82416;BME280;72058;47.782;10.618;2023-12-20T01:25:44;93384.28;;;6.20;57.10
82416;BME280;72058;47.782;10.618;2023-12-20T01:28:09;93380.09;;;6.14;57.09
82416;BME280;72058;47.782;10.618;2023-12-20T01:30:35;93367.81;;;6.21;57.37
82416;BME280;72058;47.782;10.618;2023-12-20T01:33:01;93376.50;;;6.18;57.58
82416;BME280;72058;47.782;10.618;2023-12-20T01:35:26;93383.00;;;6.17;58.18
82416;BME280;72058;47.782;10.618;2023-12-20T01:37:52;93381.81;;;6.23;58.49
82416;BME280;72058;47.782;10.618;2023-12-20T01:40:21;93381.31;;;6.21;59.06
82416;BME280;72058;47.782;10.618;2023-12-20T01:42:47;93382.50;;;6.15;59.61
82416;BME280;72058;47.782;10.618;2023-12-20T01:45:12;93391.81;;;6.23;59.58
82416;BME280;72058;47.782;10.618;2023-12-20T01:47:37;93384.00;;;6.21;60.04
82416;BME280;72058;47.782;10.618;2023-12-20T01:50:03;93385.47;;;6.14;60.27
82416;BME280;72058;47.782;10.618;2023-12-20T01:52:29;93376.66;;;6.08;60.87
82416;BME280;72058;47.782;10.618;2023-12-20T01:54:55;93382.66;;;6.05;60.98
82416;BME280;72058;47.782;10.618;2023-12-20T01:57:26;93374.84;;;6.03;61.02
82416;BME280;72058;47.782;10.618;2023-12-20T01:59:52;93375.81;;;5.94;61.28
82416;BME280;72058;47.782;10.618;2023-12-20T02:02:18;93373.41;;;5.92;61.58
82416;BME280;72058;47.782;10.618;2023-12-20T02:04:43;93365.09;;;5.89;61.24
82416;BME280;72058;47.782;10.618;2023-12-20T02:07:08;93331.59;;;5.90;61.36
82416;BME280;72058;47.782;10.618;2023-12-20T02:09:35;93329.16;;;5.69;62.07
82416;BME280;72058;47.782;10.618;2023-12-20T02:12:00;93335.50;;;5.79;62.12
82416;BME280;72058;47.782;10.618;2023-12-20T02:14:26;93343.13;;;5.77;62.22
82416;BME280;72058;47.782;10.618;2023-12-20T02:16:51;93343.75;;;5.87;62.64
82416;BME280;72058;47.782;10.618;2023-12-20T02:19:17;93348.94;;;5.84;63.16
82416;BME280;72058;47.782;10.618;2023-12-20T02:21:42;93336.13;;;5.76;63.56
82416;BME280;72058;47.782;10.618;2023-12-20T02:24:08;93335.88;;;5.72;63.99
82416;BME280;72058;47.782;10.618;2023-12-20T02:26:33;93332.47;;;5.66;64.38
82416;BME280;72058;47.782;10.618;2023-12-20T02:28:59;93343.03;;;5.63;64.90
82416;BME280;72058;47.782;10.618;2023-12-20T02:31:25;93334.09;;;5.67;64.93
82416;BME280;72058;47.782;10.618;2023-12-20T02:33:50;93343.59;;;5.79;64.96
82416;BME280;72058;47.782;10.618;2023-12-20T02:36:15;93342.13;;;5.86;64.73
82416;BME280;72058;47.782;10.618;2023-12-20T02:38:41;93341.31;;;5.91;64.30
82416;BME280;72058;47.782;10.618;2023-12-20T02:41:06;93335.38;;;5.89;64.09
82416;BME280;72058;47.782;10.618;2023-12-20T02:43:31;93341.88;;;5.88;64.07
82416;BME280;72058;47.782;10.618;2023-12-20T02:45:57;93347.50;;;5.91;63.93
82416;BME280;72058;47.782;10.618;2023-12-20T02:48:22;93350.41;;;5.95;63.45
82416;BME280;72058;47.782;10.618;2023-12-20T02:50:48;93341.00;;;5.92;63.71
82416;BME280;72058;47.782;10.618;2023-12-20T02:53:14;93343.63;;;5.97;62.81
82416;BME280;72058;47.782;10.618;2023-12-20T02:55:39;93348.44;;;6.00;62.62
82416;BME280;72058;47.782;10.618;2023-12-20T02:58:05;93339.97;;;6.07;62.15
82416;BME280;72058;47.782;10.618;2023-12-20T03:00:30;93337.25;;;6.07;62.12
82416;BME280;72058;47.782;10.618;2023-12-20T03:02:55;93330.34;;;6.01;62.48
82416;BME280;72058;47.782;10.618;2023-12-20T03:05:21;93341.16;;;6.01;62.57
82416;BME280;72058;47.782;10.618;2023-12-20T03:07:46;93340.06;;;6.02;62.61
82416;BME280;72058;47.782;10.618;2023-12-20T03:10:11;93341.16;;;6.01;62.76
82416;BME280;72058;47.782;10.618;2023-12-20T03:12:37;93344.94;;;6.00;63.29
82416;BME280;72058;47.782;10.618;2023-12-20T03:15:02;93350.66;;;6.12;63.08
82416;BME280;72058;47.782;10.618;2023-12-20T03:17:27;93343.38;;;6.13;63.29
82416;BME280;72058;47.782;10.618;2023-12-20T03:19:53;93348.56;;;6.09;63.64
82416;BME280;72058;47.782;10.618;2023-12-20T03:22:18;93349.28;;;6.15;63.79
82416;BME280;72058;47.782;10.618;2023-12-20T03:24:43;93339.28;;;6.15;65.30
82416;BME280;72058;47.782;10.618;2023-12-20T03:27:09;93345.06;;;6.08;66.45
82416;BME280;72058;47.782;10.618;2023-12-20T03:29:34;93348.28;;;6.11;66.36
82416;BME280;72058;47.782;10.618;2023-12-20T03:31:59;93353.59;;;6.16;67.01
82416;BME280;72058;47.782;10.618;2023-12-20T03:34:26;93359.50;;;6.18;67.25
82416;BME280;72058;47.782;10.618;2023-12-20T03:36:51;93352.88;;;6.10;67.73
82416;BME280;72058;47.782;10.618;2023-12-20T03:39:17;93359.16;;;6.05;68.62
82416;BME280;72058;47.782;10.618;2023-12-20T03:41:42;93357.81;;;6.03;69.05
82416;BME280;72058;47.782;10.618;2023-12-20T03:44:07;93366.53;;;6.00;69.74
82416;BME280;72058;47.782;10.618;2023-12-20T03:46:33;93365.44;;;6.01;69.96
82416;BME280;72058;47.782;10.618;2023-12-20T03:48:58;93370.47;;;6.07;69.58
82416;BME280;72058;47.782;10.618;2023-12-20T03:51:23;93371.84;;;6.05;70.19
82416;BME280;72058;47.782;10.618;2023-12-20T03:53:49;93376.44;;;6.04;71.01
82416;BME280;72058;47.782;10.618;2023-12-20T03:56:14;93377.47;;;6.08;70.92
82416;BME280;72058;47.782;10.618;2023-12-20T03:58:39;93378.69;;;6.16;71.07
82416;BME280;72058;47.782;10.618;2023-12-20T04:01:09;93379.88;;;6.10;71.34
82416;BME280;72058;47.782;10.618;2023-12-20T04:03:36;93390.06;;;6.13;71.55
82416;BME280;72058;47.782;10.618;2023-12-20T04:06:01;93383.06;;;6.12;71.97
82416;BME280;72058;47.782;10.618;2023-12-20T04:08:26;93385.47;;;6.14;72.06
82416;BME280;72058;47.782;10.618;2023-12-20T04:10:52;93386.56;;;6.13;72.04
82416;BME280;72058;47.782;10.618;2023-12-20T04:13:17;93384.47;;;6.09;72.48
82416;BME280;72058;47.782;10.618;2023-12-20T04:15:42;93387.47;;;6.08;72.69
82416;BME280;72058;47.782;10.618;2023-12-20T04:18:08;93373.34;;;6.11;72.73
82416;BME280;72058;47.782;10.618;2023-12-20T04:20:33;93368.94;;;6.01;73.33
82416;BME280;72058;47.782;10.618;2023-12-20T04:22:58;93367.19;;;6.11;73.36
82416;BME280;72058;47.782;10.618;2023-12-20T04:25:25;93368.63;;;6.03;73.73
82416;BME280;72058;47.782;10.618;2023-12-20T04:27:50;93361.44;;;5.98;73.86
82416;BME280;72058;47.782;10.618;2023-12-20T04:30:15;93366.44;;;5.86;74.96
82416;BME280;72058;47.782;10.618;2023-12-20T04:32:41;93352.44;;;5.84;74.83
82416;BME280;72058;47.782;10.618;2023-12-20T04:35:06;93362.81;;;5.77;74.83
82416;BME280;72058;47.782;10.618;2023-12-20T04:37:33;93366.88;;;5.75;74.63
82416;BME280;72058;47.782;10.618;2023-12-20T04:39:58;93372.56;;;5.73;74.31
82416;BME280;72058;47.782;10.618;2023-12-20T04:42:24;93375.03;;;5.69;74.18
82416;BME280;72058;47.782;10.618;2023-12-20T04:44:49;93379.88;;;5.72;74.02
82416;BME280;72058;47.782;10.618;2023-12-20T04:47:14;93384.97;;;5.74;73.60
82416;BME280;72058;47.782;10.618;2023-12-20T04:49:40;93383.97;;;5.89;73.06
82416;BME280;72058;47.782;10.618;2023-12-20T04:52:05;93391.53;;;5.87;72.81
82416;BME280;72058;47.782;10.618;2023-12-20T04:54:31;93390.81;;;5.81;73.35
82416;BME280;72058;47.782;10.618;2023-12-20T04:56:56;93400.81;;;5.81;73.28
82416;BME280;72058;47.782;10.618;2023-12-20T04:59:21;93404.00;;;5.83;73.42
82416;BME280;72058;47.782;10.618;2023-12-20T05:01:47;93413.13;;;5.87;73.13
82416;BME280;72058;47.782;10.618;2023-12-20T05:04:12;93424.69;;;5.92;72.56
82416;BME280;72058;47.782;10.618;2023-12-20T05:06:38;93431.19;;;5.91;72.94
82416;BME280;72058;47.782;10.618;2023-12-20T05:09:03;93435.50;;;5.92;72.50
82416;BME280;72058;47.782;10.618;2023-12-20T05:11:28;93435.41;;;5.97;72.44
82416;BME280;72058;47.782;10.618;2023-12-20T05:13:54;93442.28;;;5.90;72.88
82416;BME280;72058;47.782;10.618;2023-12-20T05:16:19;93438.19;;;5.92;72.64
82416;BME280;72058;47.782;10.618;2023-12-20T05:18:45;93442.78;;;5.92;72.88
82416;BME280;72058;47.782;10.618;2023-12-20T05:21:10;93439.38;;;5.81;72.62
82416;BME280;72058;47.782;10.618;2023-12-20T05:23:36;93445.31;;;5.83;73.21
82416;BME280;72058;47.782;10.618;2023-12-20T05:26:01;93447.25;;;5.78;73.36
82416;BME280;72058;47.782;10.618;2023-12-20T05:28:27;93445.66;;;5.77;72.90
82416;BME280;72058;47.782;10.618;2023-12-20T05:30:52;93451.13;;;5.71;73.19
82416;BME280;72058;47.782;10.618;2023-12-20T05:33:17;93459.16;;;5.77;73.11
82416;BME280;72058;47.782;10.618;2023-12-20T05:35:43;93461.63;;;5.73;72.95
82416;BME280;72058;47.782;10.618;2023-12-20T05:38:09;93466.22;;;5.72;72.39
82416;BME280;72058;47.782;10.618;2023-12-20T05:40:34;93473.00;;;5.70;72.34
82416;BME280;72058;47.782;10.618;2023-12-20T05:42:59;93486.03;;;5.63;72.54
82416;BME280;72058;47.782;10.618;2023-12-20T05:45:25;93482.53;;;5.62;72.80
82416;BME280;72058;47.782;10.618;2023-12-20T05:47:50;93482.31;;;5.59;72.67
82416;BME280;72058;47.782;10.618;2023-12-20T05:50:15;93500.16;;;5.55;72.46
82416;BME280;72058;47.782;10.618;2023-12-20T05:52:40;93497.59;;;5.45;72.91
82416;BME280;72058;47.782;10.618;2023-12-20T05:55:06;93500.59;;;5.43;73.22
82416;BME280;72058;47.782;10.618;2023-12-20T05:57:31;93494.16;;;5.39;73.15
82416;BME280;72058;47.782;10.618;2023-12-20T05:59:57;93505.50;;;5.36;73.42
82416;BME280;72058;47.782;10.618;2023-12-20T06:02:23;93509.53;;;5.39;73.68
82416;BME280;72058;47.782;10.618;2023-12-20T06:04:48;93499.63;;;5.34;73.70
82416;BME280;72058;47.782;10.618;2023-12-20T06:07:14;93507.88;;;5.43;73.44
82416;BME280;72058;47.782;10.618;2023-12-20T06:09:39;93506.03;;;5.38;73.34
82416;BME280;72058;47.782;10.618;2023-12-20T06:12:05;93507.06;;;5.42;73.41
82416;BME280;72058;47.782;10.618;2023-12-20T06:14:30;93513.50;;;5.46;72.81
82416;BME280;72058;47.782;10.618;2023-12-20T06:16:58;93502.16;;;5.44;72.60
82416;BME280;72058;47.782;10.618;2023-12-20T06:19:23;93513.13;;;5.29;72.65
82416;BME280;72058;47.782;10.618;2023-12-20T06:21:49;93516.75;;;5.19;73.09
82416;BME280;72058;47.782;10.618;2023-12-20T06:24:14;93524.81;;;5.19;73.20
82416;BME280;72058;47.782;10.618;2023-12-20T06:26:40;93526.31;;;5.07;73.35
82416;BME280;72058;47.782;10.618;2023-12-20T06:29:05;93529.91;;;4.97;73.79
82416;BME280;72058;47.782;10.618;2023-12-20T06:31:30;93532.13;;;4.90;73.96
82416;BME280;72058;47.782;10.618;2023-12-20T06:33:58;93536.44;;;4.91;73.88
82416;BME280;72058;47.782;10.618;2023-12-20T06:36:24;93547.44;;;4.94;73.15
82416;BME280;72058;47.782;10.618;2023-12-20T06:38:50;93544.25;;;4.92;73.26
82416;BME280;72058;47.782;10.618;2023-12-20T06:41:15;93534.34;;;4.83;73.70
82416;BME280;72058;47.782;10.618;2023-12-20T06:43:41;93543.25;;;4.83;73.53
82416;BME280;72058;47.782;10.618;2023-12-20T06:46:07;93538.69;;;4.79;73.55
82416;BME280;72058;47.782;10.618;2023-12-20T06:48:32;93544.31;;;4.82;73.34
82416;BME280;72058;47.782;10.618;2023-12-20T06:51:00;93546.81;;;4.74;73.68
82416;BME280;72058;47.782;10.618;2023-12-20T06:53:25;93553.81;;;4.75;74.24
82416;BME280;72058;47.782;10.618;2023-12-20T06:55:50;93554.69;;;4.65;74.16
82416;BME280;72058;47.782;10.618;2023-12-20T06:58:16;93549.84;;;4.67;74.56
82416;BME280;72058;47.782;10.618;2023-12-20T07:00:41;93551.59;;;4.48;75.17
82416;BME280;72058;47.782;10.618;2023-12-20T07:03:07;93562.63;;;4.51;75.41
82416;BME280;72058;47.782;10.618;2023-12-20T07:05:32;93560.91;;;4.66;74.36
82416;BME280;72058;47.782;10.618;2023-12-20T07:07:58;93569.25;;;4.64;74.54
82416;BME280;72058;47.782;10.618;2023-12-20T07:10:23;93559.84;;;4.62;74.26
82416;BME280;72058;47.782;10.618;2023-12-20T07:12:49;93563.09;;;4.58;74.70
82416;BME280;72058;47.782;10.618;2023-12-20T07:15:16;93572.25;;;4.57;74.97
82416;BME280;72058;47.782;10.618;2023-12-20T07:17:41;93565.00;;;4.53;75.18
82416;BME280;72058;47.782;10.618;2023-12-20T07:20:07;93557.72;;;4.53;75.41
82416;BME280;72058;47.782;10.618;2023-12-20T07:22:36;93567.69;;;4.53;75.26
82416;BME280;72058;47.782;10.618;2023-12-20T07:25:01;93573.59;;;4.60;75.13
82416;BME280;72058;47.782;10.618;2023-12-20T07:27:27;93587.84;;;4.66;74.92
82416;BME280;72058;47.782;10.618;2023-12-20T07:29:52;93581.88;;;4.69;74.95
82416;BME280;72058;47.782;10.618;2023-12-20T07:32:18;93598.13;;;4.58;75.33
82416;BME280;72058;47.782;10.618;2023-12-20T07:34:44;93584.94;;;4.57;75.37
82416;BME280;72058;47.782;10.618;2023-12-20T07:37:09;93581.44;;;4.56;75.51
82416;BME280;72058;47.782;10.618;2023-12-20T07:39:39;93586.81;;;4.56;75.64
82416;BME280;72058;47.782;10.618;2023-12-20T07:42:05;93591.13;;;4.52;75.88
82416;BME280;72058;47.782;10.618;2023-12-20T07:44:31;93587.16;;;4.45;76.45
82416;BME280;72058;47.782;10.618;2023-12-20T07:46:56;93583.09;;;4.47;76.46
82416;BME280;72058;47.782;10.618;2023-12-20T07:49:23;93595.28;;;4.40;76.62
82416;BME280;72058;47.782;10.618;2023-12-20T07:51:48;93589.03;;;4.49;76.47
82416;BME280;72058;47.782;10.618;2023-12-20T07:54:13;93589.78;;;4.55;76.46
82416;BME280;72058;47.782;10.618;2023-12-20T07:56:39;93584.66;;;4.53;76.39
82416;BME280;72058;47.782;10.618;2023-12-20T07:59:05;93594.34;;;4.60;76.25
82416;BME280;72058;47.782;10.618;2023-12-20T08:01:30;93596.25;;;4.54;76.61
82416;BME280;72058;47.782;10.618;2023-12-20T08:03:56;93590.31;;;4.57;76.24
82416;BME280;72058;47.782;10.618;2023-12-20T08:06:22;93594.63;;;4.53;76.88
82416;BME280;72058;47.782;10.618;2023-12-20T08:08:47;93589.50;;;4.56;76.41
82416;BME280;72058;47.782;10.618;2023-12-20T08:11:13;93590.91;;;4.49;76.84
82416;BME280;72058;47.782;10.618;2023-12-20T08:13:38;93597.09;;;4.49;76.85
82416;BME280;72058;47.782;10.618;2023-12-20T08:16:03;93600.78;;;4.64;76.11
82416;BME280;72058;47.782;10.618;2023-12-20T08:18:29;93612.06;;;4.66;76.00
82416;BME280;72058;47.782;10.618;2023-12-20T08:20:55;93609.72;;;4.59;76.09
82416;BME280;72058;47.782;10.618;2023-12-20T08:23:20;93614.78;;;4.66;76.16
82416;BME280;72058;47.782;10.618;2023-12-20T08:25:46;93612.28;;;4.74;75.90
82416;BME280;72058;47.782;10.618;2023-12-20T08:28:12;93611.72;;;4.77;75.89
82416;BME280;72058;47.782;10.618;2023-12-20T08:30:37;93614.13;;;4.79;75.94
82416;BME280;72058;47.782;10.618;2023-12-20T08:33:02;93608.50;;;4.75;76.30
82416;BME280;72058;47.782;10.618;2023-12-20T08:35:28;93601.31;;;4.61;77.11
82416;BME280;72058;47.782;10.618;2023-12-20T08:37:53;93594.03;;;4.66;76.90
82416;BME280;72058;47.782;10.618;2023-12-20T08:40:19;93603.41;;;4.69;76.54
82416;BME280;72058;47.782;10.618;2023-12-20T08:42:45;93598.34;;;4.62;76.92
82416;BME280;72058;47.782;10.618;2023-12-20T08:45:10;93594.22;;;4.75;76.99
82416;BME280;72058;47.782;10.618;2023-12-20T08:47:36;93593.16;;;4.76;76.11
82416;BME280;72058;47.782;10.618;2023-12-20T08:50:02;93593.44;;;4.74;76.60
82416;BME280;72058;47.782;10.618;2023-12-20T08:52:28;93598.44;;;4.86;76.01
82416;BME280;72058;47.782;10.618;2023-12-20T08:54:54;93597.41;;;4.82;76.80
82416;BME280;72058;47.782;10.618;2023-12-20T08:57:20;93606.56;;;4.81;76.53
82416;BME280;72058;47.782;10.618;2023-12-20T08:59:49;93597.63;;;4.85;76.47
82416;BME280;72058;47.782;10.618;2023-12-20T09:02:16;93599.56;;;4.80;76.78
82416;BME280;72058;47.782;10.618;2023-12-20T09:04:41;93596.06;;;4.84;76.39
82416;BME280;72058;47.782;10.618;2023-12-20T09:07:07;93583.38;;;4.85;76.40
82416;BME280;72058;47.782;10.618;2023-12-20T09:09:32;93593.97;;;4.76;76.64
82416;BME280;72058;47.782;10.618;2023-12-20T09:11:59;93598.28;;;4.72;77.14
82416;BME280;72058;47.782;10.618;2023-12-20T09:14:24;93599.03;;;4.78;76.76
82416;BME280;72058;47.782;10.618;2023-12-20T09:16:50;93603.13;;;4.75;77.04
82416;BME280;72058;47.782;10.618;2023-12-20T09:19:17;93599.25;;;4.86;76.55
82416;BME280;72058;47.782;10.618;2023-12-20T09:21:43;93596.34;;;4.83;77.11
82416;BME280;72058;47.782;10.618;2023-12-20T09:24:08;93596.13;;;4.74;77.60
82416;BME280;72058;47.782;10.618;2023-12-20T09:26:34;93591.22;;;4.81;76.98
82416;BME280;72058;47.782;10.618;2023-12-20T09:28:59;93591.16;;;4.91;76.58
82416;BME280;72058;47.782;10.618;2023-12-20T09:31:25;93587.59;;;4.96;76.40
82416;BME280;72058;47.782;10.618;2023-12-20T09:33:50;93591.63;;;4.99;76.81
82416;BME280;72058;47.782;10.618;2023-12-20T09:36:15;93591.06;;;5.02;76.54
82416;BME280;72058;47.782;10.618;2023-12-20T09:38:41;93580.97;;;5.12;76.38
82416;BME280;72058;47.782;10.618;2023-12-20T09:41:07;93595.84;;;5.10;76.56
82416;BME280;72058;47.782;10.618;2023-12-20T09:43:38;93591.28;;;5.05;76.51
82416;BME280;72058;47.782;10.618;2023-12-20T09:46:05;93599.09;;;5.07;76.94
82416;BME280;72058;47.782;10.618;2023-12-20T09:48:32;93589.66;;;5.09;76.92
82416;BME280;72058;47.782;10.618;2023-12-20T09:50:58;93589.88;;;5.13;76.82
82416;BME280;72058;47.782;10.618;2023-12-20T09:53:24;93580.41;;;5.15;77.55
82416;BME280;72058;47.782;10.618;2023-12-20T09:55:57;93566.66;;;5.17;77.67
82416;BME280;72058;47.782;10.618;2023-12-20T09:58:23;93567.22;;;5.14;77.79
82416;BME280;72058;47.782;10.618;2023-12-20T10:00:48;93574.56;;;5.08;78.10
82416;BME280;72058;47.782;10.618;2023-12-20T10:03:14;93572.94;;;5.07;78.22
82416;BME280;72058;47.782;10.618;2023-12-20T10:05:43;93563.34;;;4.96;79.00
82416;BME280;72058;47.782;10.618;2023-12-20T10:08:08;93566.28;;;5.00;79.16
82416;BME280;72058;47.782;10.618;2023-12-20T10:10:33;93566.00;;;5.01;79.27
82416;BME280;72058;47.782;10.618;2023-12-20T10:13:06;93556.78;;;5.07;78.80
82416;BME280;72058;47.782;10.618;2023-12-20T10:15:35;93551.66;;;5.06;78.91
82416;BME280;72058;47.782;10.618;2023-12-20T10:18:01;93561.34;;;5.07;79.36
82416;BME280;72058;47.782;10.618;2023-12-20T10:20:28;93565.19;;;5.01;79.83
82416;BME280;72058;47.782;10.618;2023-12-20T10:22:57;93559.69;;;5.11;79.70
82416;BME280;72058;47.782;10.618;2023-12-20T10:25:23;93554.00;;;5.17;79.14
82416;BME280;72058;47.782;10.618;2023-12-20T10:27:50;93554.53;;;5.14;79.29
82416;BME280;72058;47.782;10.618;2023-12-20T10:30:16;93553.94;;;5.22;78.98
82416;BME280;72058;47.782;10.618;2023-12-20T10:32:41;93553.59;;;5.29;78.76
82416;BME280;72058;47.782;10.618;2023-12-20T10:35:08;93546.41;;;5.19;79.55
82416;BME280;72058;47.782;10.618;2023-12-20T10:37:37;93545.47;;;5.34;78.34
82416;BME280;72058;47.782;10.618;2023-12-20T10:40:04;93542.13;;;5.42;78.23
82416;BME280;72058;47.782;10.618;2023-12-20T10:42:31;93535.47;;;5.34;78.58
82416;BME280;72058;47.782;10.618;2023-12-20T10:44:59;93541.44;;;5.31;78.70
82416;BME280;72058;47.782;10.618;2023-12-20T10:47:25;93528.22;;;5.30;78.58
82416;BME280;72058;47.782;10.618;2023-12-20T10:49:52;93529.00;;;5.36;78.10
82416;BME280;72058;47.782;10.618;2023-12-20T10:52:17;93518.69;;;5.38;78.02
82416;BME280;72058;47.782;10.618;2023-12-20T10:54:44;93518.69;;;5.38;78.61
82416;BME280;72058;47.782;10.618;2023-12-20T10:57:09;93522.16;;;5.43;78.97
82416;BME280;72058;47.782;10.618;2023-12-20T10:59:37;93523.75;;;5.44;77.94
82416;BME280;72058;47.782;10.618;2023-12-20T11:02:03;93525.88;;;5.47;78.45
82416;BME280;72058;47.782;10.618;2023-12-20T11:04:55;93519.34;;;5.53;78.24
82416;BME280;72058;47.782;10.618;2023-12-20T11:07:28;93515.38;;;5.46;78.34
82416;BME280;72058;47.782;10.618;2023-12-20T11:12:44;93512.63;;;5.51;77.11
82416;BME280;72058;47.782;10.618;2023-12-20T11:15:12;93518.25;;;5.54;76.87
82416;BME280;72058;47.782;10.618;2023-12-20T11:17:39;93520.03;;;5.64;76.66
82416;BME280;72058;47.782;10.618;2023-12-20T11:20:07;93520.91;;;5.59;76.71
82416;BME280;72058;47.782;10.618;2023-12-20T11:22:34;93516.59;;;5.58;77.02
82416;BME280;72058;47.782;10.618;2023-12-20T11:25:10;93514.41;;;5.60;77.04
82416;BME280;72058;47.782;10.618;2023-12-20T11:28:08;93510.56;;;5.66;76.62
82416;BME280;72058;47.782;10.618;2023-12-20T11:30:50;93504.13;;;5.62;77.09
82416;BME280;72058;47.782;10.618;2023-12-20T11:33:16;93505.72;;;5.63;76.48
82416;BME280;72058;47.782;10.618;2023-12-20T11:35:43;93502.19;;;5.68;76.55
82416;BME280;72058;47.782;10.618;2023-12-20T11:38:09;93500.69;;;5.57;76.53
82416;BME280;72058;47.782;10.618;2023-12-20T11:40:35;93497.47;;;5.55;76.59
82416;BME280;72058;47.782;10.618;2023-12-20T11:43:02;93506.72;;;5.49;76.97
82416;BME280;72058;47.782;10.618;2023-12-20T11:45:27;93507.53;;;5.49;77.19
82416;BME280;72058;47.782;10.618;2023-12-20T11:47:53;93504.84;;;5.49;77.12
82416;BME280;72058;47.782;10.618;2023-12-20T11:50:20;93513.72;;;5.50;76.80
82416;BME280;72058;47.782;10.618;2023-12-20T11:52:46;93502.34;;;5.53;76.69
82416;BME280;72058;47.782;10.618;2023-12-20T11:55:11;93512.91;;;5.49;76.81
82416;BME280;72058;47.782;10.618;2023-12-20T11:57:38;93510.50;;;5.48;76.90
82416;BME280;72058;47.782;10.618;2023-12-20T12:00:04;93500.28;;;5.45;77.23
82416;BME280;72058;47.782;10.618;2023-12-20T12:02:30;93498.56;;;5.54;77.46
82416;BME280;72058;47.782;10.618;2023-12-20T12:04:55;93504.31;;;5.47;77.57
82416;BME280;72058;47.782;10.618;2023-12-20T12:07:21;93510.22;;;5.49;77.59
82416;BME280;72058;47.782;10.618;2023-12-20T12:09:47;93511.88;;;5.45;77.72
82416;BME280;72058;47.782;10.618;2023-12-20T12:12:13;93506.53;;;5.40;77.72
82416;BME280;72058;47.782;10.618;2023-12-20T12:14:39;93505.75;;;5.40;77.92
82416;BME280;72058;47.782;10.618;2023-12-20T12:17:09;93509.78;;;5.42;78.29
82416;BME280;72058;47.782;10.618;2023-12-20T12:19:35;93512.75;;;5.41;78.24
82416;BME280;72058;47.782;10.618;2023-12-20T12:24:36;93514.56;;;5.45;77.46
82416;BME280;72058;47.782;10.618;2023-12-20T12:27:02;93505.91;;;5.48;77.35
82416;BME280;72058;47.782;10.618;2023-12-20T12:29:28;93506.72;;;5.49;77.30
82416;BME280;72058;47.782;10.618;2023-12-20T12:31:54;93497.59;;;5.45;77.23
82416;BME280;72058;47.782;10.618;2023-12-20T12:34:20;93500.00;;;5.46;77.31
82416;BME280;72058;47.782;10.618;2023-12-20T12:36:45;93496.38;;;5.56;76.37
82416;BME280;72058;47.782;10.618;2023-12-20T12:39:18;93497.13;;;5.61;75.85
82416;BME280;72058;47.782;10.618;2023-12-20T12:41:43;93496.56;;;5.64;74.39
82416;BME280;72058;47.782;10.618;2023-12-20T12:44:08;93489.63;;;5.58;73.82
82416;BME280;72058;47.782;10.618;2023-12-20T12:46:34;93483.69;;;5.56;73.92
82416;BME280;72058;47.782;10.618;2023-12-20T12:49:00;93474.06;;;5.50;74.25
82416;BME280;72058;47.782;10.618;2023-12-20T12:51:25;93476.69;;;5.55;73.52
82416;BME280;72058;47.782;10.618;2023-12-20T12:53:50;93472.19;;;5.51;73.90
82416;BME280;72058;47.782;10.618;2023-12-20T12:56:16;93472.47;;;5.49;74.03
82416;BME280;72058;47.782;10.618;2023-12-20T12:58:42;93467.69;;;5.41;74.43